sensor_id;sensor_type;location;lat;lon;timestamp;P1;durP1;ratioP1;P2;durP2;ratioP2
68951;SDS011;56000;51.146;17.112;2023-05-17T18:11:25;20.20;;;9.40;;
68951;SDS011;56000;51.146;17.112;2023-05-17T18:26:50;17.90;;;7.90;;
68951;SDS011;56000;51.146;17.112;2023-05-17T18:29:23;18.30;;;8.60;;
68951;SDS011;56000;51.146;17.112;2023-05-17T18:31:56;14.80;;;5.50;;
68951;SDS011;56000;51.146;17.112;2023-05-17T18:34:31;10.70;;;5.20;;
68951;SDS011;56000;51.146;17.112;2023-05-17T18:37:04;13.00;;;5.30;;
68951;SDS011;56000;51.146;17.112;2023-05-17T18:39:38;12.50;;;5.40;;
68951;SDS011;56000;51.146;17.112;2023-05-17T18:42:11;13.80;;;5.50;;
68951;SDS011;56000;51.146;17.112;2023-05-17T18:44:44;8.90;;;3.80;;
68951;SDS011;56000;51.146;17.112;2023-05-17T18:47:18;11.50;;;4.30;;
68951;SDS011;56000;51.146;17.112;2023-05-17T18:49:52;13.40;;;5.20;;
68951;SDS011;56000;51.146;17.112;2023-05-17T18:52:25;18.20;;;7.60;;
68951;SDS011;56000;51.146;17.112;2023-05-17T18:54:58;15.60;;;5.80;;
68951;SDS011;56000;51.146;17.112;2023-05-17T18:57:31;14.30;;;4.90;;
68951;SDS011;56000;51.146;17.112;2023-05-17T19:00:06;10.60;;;4.00;;
68951;SDS011;56000;51.146;17.112;2023-05-17T19:02:41;14.70;;;3.70;;
68951;SDS011;56000;51.146;17.112;2023-05-17T19:05:14;10.80;;;3.80;;
68951;SDS011;56000;51.146;17.112;2023-05-17T19:07:48;15.00;;;4.40;;
68951;SDS011;56000;51.146;17.112;2023-05-17T19:10:21;22.60;;;4.80;;
68951;SDS011;56000;51.146;17.112;2023-05-17T19:12:55;15.50;;;4.80;;
68951;SDS011;56000;51.146;17.112;2023-05-17T19:15:28;12.80;;;4.10;;
68951;SDS011;56000;51.146;17.112;2023-05-17T19:18:01;16.10;;;4.30;;
68951;SDS011;56000;51.146;17.112;2023-05-17T19:20:35;13.80;;;4.50;;
68951;SDS011;56000;51.146;17.112;2023-05-17T19:23:08;18.70;;;6.30;;
68951;SDS011;56000;51.146;17.112;2023-05-17T19:25:42;16.20;;;6.60;;
68951;SDS011;56000;51.146;17.112;2023-05-17T19:28:15;15.40;;;6.30;;
68951;SDS011;56000;51.146;17.112;2023-05-17T19:30:48;16.50;;;6.50;;
68951;SDS011;56000;51.146;17.112;2023-05-17T19:33:21;17.20;;;6.70;;
68951;SDS011;56000;51.146;17.112;2023-05-17T19:35:55;16.60;;;6.70;;
68951;SDS011;56000;51.146;17.112;2023-05-17T19:38:28;18.30;;;6.30;;
68951;SDS011;56000;51.146;17.112;2023-05-17T19:41:03;21.60;;;7.00;;
68951;SDS011;56000;51.146;17.112;2023-05-17T19:43:38;17.00;;;6.30;;
68951;SDS011;56000;51.146;17.112;2023-05-17T19:46:11;17.80;;;7.60;;
68951;SDS011;56000;51.146;17.112;2023-05-17T19:48:44;21.60;;;7.00;;
68951;SDS011;56000;51.146;17.112;2023-05-17T19:51:18;21.10;;;6.00;;
68951;SDS011;56000;51.146;17.112;2023-05-17T19:53:52;18.90;;;7.00;;
68951;SDS011;56000;51.146;17.112;2023-05-17T19:56:26;18.50;;;7.00;;
68951;SDS011;56000;51.146;17.112;2023-05-17T19:58:59;17.00;;;7.30;;
68951;SDS011;56000;51.146;17.112;2023-05-17T20:01:33;20.50;;;9.80;;
68951;SDS011;56000;51.146;17.112;2023-05-17T20:04:06;20.60;;;8.10;;
68951;SDS011;56000;51.146;17.112;2023-05-17T20:06:40;22.80;;;9.60;;
68951;SDS011;56000;51.146;17.112;2023-05-17T20:09:13;23.60;;;8.60;;
68951;SDS011;56000;51.146;17.112;2023-05-17T20:11:47;17.30;;;8.10;;
68951;SDS011;56000;51.146;17.112;2023-05-17T20:14:20;21.90;;;8.70;;
68951;SDS011;56000;51.146;17.112;2023-05-17T20:16:54;25.00;;;8.40;;
68951;SDS011;56000;51.146;17.112;2023-05-17T20:19:27;23.90;;;8.20;;
68951;SDS011;56000;51.146;17.112;2023-05-17T20:22:00;18.70;;;8.00;;
68951;SDS011;56000;51.146;17.112;2023-05-17T20:24:34;19.00;;;7.30;;
68951;SDS011;56000;51.146;17.112;2023-05-17T20:27:07;21.50;;;7.20;;
68951;SDS011;56000;51.146;17.112;2023-05-17T20:29:42;18.20;;;8.20;;
68951;SDS011;56000;51.146;17.112;2023-05-17T20:32:15;23.90;;;8.10;;
68951;SDS011;56000;51.146;17.112;2023-05-17T20:34:48;21.20;;;7.30;;
68951;SDS011;56000;51.146;17.112;2023-05-17T20:37:21;20.20;;;7.50;;
68951;SDS011;56000;51.146;17.112;2023-05-17T20:39:54;11.80;;;6.50;;
68951;SDS011;56000;51.146;17.112;2023-05-17T20:42:29;16.90;;;7.30;;
68951;SDS011;56000;51.146;17.112;2023-05-17T20:45:02;13.70;;;6.80;;
68951;SDS011;56000;51.146;17.112;2023-05-17T20:47:37;18.90;;;7.90;;
68951;SDS011;56000;51.146;17.112;2023-05-17T20:50:11;17.10;;;8.10;;
68951;SDS011;56000;51.146;17.112;2023-05-17T20:52:47;21.90;;;8.60;;
68951;SDS011;56000;51.146;17.112;2023-05-17T20:55:20;29.10;;;8.20;;
68951;SDS011;56000;51.146;17.112;2023-05-17T20:57:54;23.80;;;8.10;;
68951;SDS011;56000;51.146;17.112;2023-05-17T21:00:27;24.20;;;10.40;;
68951;SDS011;56000;51.146;17.112;2023-05-17T21:03:01;24.20;;;10.70;;
68951;SDS011;56000;51.146;17.112;2023-05-17T21:05:34;26.30;;;10.50;;
68951;SDS011;56000;51.146;17.112;2023-05-17T21:08:07;27.80;;;10.10;;
68951;SDS011;56000;51.146;17.112;2023-05-17T21:10:41;22.90;;;11.30;;
68951;SDS011;56000;51.146;17.112;2023-05-17T21:13:16;29.20;;;10.80;;
68951;SDS011;56000;51.146;17.112;2023-05-17T21:15:50;29.80;;;11.00;;
68951;SDS011;56000;51.146;17.112;2023-05-17T21:18:24;30.30;;;11.10;;
68951;SDS011;56000;51.146;17.112;2023-05-17T21:20:57;33.00;;;10.80;;
68951;SDS011;56000;51.146;17.112;2023-05-17T21:23:30;20.20;;;10.00;;
68951;SDS011;56000;51.146;17.112;2023-05-17T21:26:04;25.90;;;10.50;;
68951;SDS011;56000;51.146;17.112;2023-05-17T21:28:37;28.10;;;10.50;;
68951;SDS011;56000;51.146;17.112;2023-05-17T21:31:10;25.90;;;9.20;;
68951;SDS011;56000;51.146;17.112;2023-05-17T21:33:44;22.90;;;9.00;;
68951;SDS011;56000;51.146;17.112;2023-05-17T21:36:18;24.30;;;10.50;;
68951;SDS011;56000;51.146;17.112;2023-05-17T21:38:51;22.20;;;8.70;;
68951;SDS011;56000;51.146;17.112;2023-05-17T21:41:24;17.70;;;8.40;;
68951;SDS011;56000;51.146;17.112;2023-05-17T21:43:58;23.10;;;9.00;;
68951;SDS011;56000;51.146;17.112;2023-05-17T21:46:31;26.00;;;8.80;;
68951;SDS011;56000;51.146;17.112;2023-05-17T21:49:04;21.70;;;8.10;;
68951;SDS011;56000;51.146;17.112;2023-05-17T21:51:38;19.30;;;7.80;;
68951;SDS011;56000;51.146;17.112;2023-05-17T21:54:12;27.00;;;8.50;;
68951;SDS011;56000;51.146;17.112;2023-05-17T21:56:45;22.70;;;8.90;;
68951;SDS011;56000;51.146;17.112;2023-05-17T21:59:18;22.60;;;8.00;;
68951;SDS011;56000;51.146;17.112;2023-05-17T22:01:54;15.30;;;7.50;;
68951;SDS011;56000;51.146;17.112;2023-05-17T22:04:27;18.30;;;7.80;;
68951;SDS011;56000;51.146;17.112;2023-05-17T22:07:00;20.40;;;7.70;;
68951;SDS011;56000;51.146;17.112;2023-05-17T22:09:33;22.30;;;7.50;;
68951;SDS011;56000;51.146;17.112;2023-05-17T22:12:08;19.60;;;6.90;;
68951;SDS011;56000;51.146;17.112;2023-05-17T22:14:41;18.00;;;7.30;;
68951;SDS011;56000;51.146;17.112;2023-05-17T22:17:14;22.10;;;7.00;;
68951;SDS011;56000;51.146;17.112;2023-05-17T22:19:47;18.30;;;6.50;;
68951;SDS011;56000;51.146;17.112;2023-05-17T22:22:21;16.00;;;6.40;;
68951;SDS011;56000;51.146;17.112;2023-05-17T22:24:54;25.10;;;5.50;;
68951;SDS011;56000;51.146;17.112;2023-05-17T22:27:27;17.50;;;5.10;;
68951;SDS011;56000;51.146;17.112;2023-05-17T22:30:01;19.10;;;5.60;;
68951;SDS011;56000;51.146;17.112;2023-05-17T22:32:35;22.90;;;5.90;;
68951;SDS011;56000;51.146;17.112;2023-05-17T22:35:09;17.20;;;5.30;;
68951;SDS011;56000;51.146;17.112;2023-05-17T22:37:42;14.50;;;5.00;;
68951;SDS011;56000;51.146;17.112;2023-05-17T22:40:16;16.70;;;5.30;;
68951;SDS011;56000;51.146;17.112;2023-05-17T22:42:49;15.20;;;5.40;;
68951;SDS011;56000;51.146;17.112;2023-05-17T22:45:23;17.40;;;5.40;;
68951;SDS011;56000;51.146;17.112;2023-05-17T22:48:02;21.70;;;5.80;;
68951;SDS011;56000;51.146;17.112;2023-05-17T22:50:36;23.10;;;5.10;;
68951;SDS011;56000;51.146;17.112;2023-05-17T22:53:09;16.10;;;4.80;;
68951;SDS011;56000;51.146;17.112;2023-05-17T22:55:44;15.10;;;4.80;;
68951;SDS011;56000;51.146;17.112;2023-05-17T22:58:18;18.70;;;7.00;;
68951;SDS011;56000;51.146;17.112;2023-05-17T23:00:52;14.20;;;5.70;;
68951;SDS011;56000;51.146;17.112;2023-05-17T23:03:25;14.20;;;4.70;;
68951;SDS011;56000;51.146;17.112;2023-05-17T23:05:59;15.10;;;5.50;;
68951;SDS011;56000;51.146;17.112;2023-05-17T23:08:32;18.50;;;5.40;;
68951;SDS011;56000;51.146;17.112;2023-05-17T23:11:05;19.50;;;5.50;;
68951;SDS011;56000;51.146;17.112;2023-05-17T23:13:38;15.80;;;5.30;;
68951;SDS011;56000;51.146;17.112;2023-05-17T23:16:11;13.70;;;5.20;;
68951;SDS011;56000;51.146;17.112;2023-05-17T23:18:45;13.00;;;5.10;;
68951;SDS011;56000;51.146;17.112;2023-05-17T23:21:18;23.70;;;7.10;;
68951;SDS011;56000;51.146;17.112;2023-05-17T23:23:51;18.50;;;5.40;;
68951;SDS011;56000;51.146;17.112;2023-05-17T23:26:25;19.80;;;5.40;;
68951;SDS011;56000;51.146;17.112;2023-05-17T23:28:58;18.10;;;6.60;;
68951;SDS011;56000;51.146;17.112;2023-05-17T23:31:32;18.30;;;5.30;;
68951;SDS011;56000;51.146;17.112;2023-05-17T23:34:05;13.80;;;5.30;;
68951;SDS011;56000;51.146;17.112;2023-05-17T23:36:38;18.80;;;5.30;;
68951;SDS011;56000;51.146;17.112;2023-05-17T23:39:11;12.80;;;4.90;;
68951;SDS011;56000;51.146;17.112;2023-05-17T23:41:45;10.70;;;4.90;;
68951;SDS011;56000;51.146;17.112;2023-05-17T23:44:18;18.40;;;6.00;;
68951;SDS011;56000;51.146;17.112;2023-05-17T23:46:51;18.10;;;5.90;;
68951;SDS011;56000;51.146;17.112;2023-05-17T23:49:25;14.00;;;5.20;;
68951;SDS011;56000;51.146;17.112;2023-05-17T23:51:58;18.70;;;5.40;;
68951;SDS011;56000;51.146;17.112;2023-05-17T23:54:31;17.20;;;5.50;;
68951;SDS011;56000;51.146;17.112;2023-05-17T23:57:05;35.50;;;7.30;;
68951;SDS011;56000;51.146;17.112;2023-05-17T23:59:39;11.40;;;5.60;;
